Terminal Aerodrome Forecast
Issued by NWS

Home | Current Version | Previous Version | Graphics & Text | Print | Product List | Glossary On
Versions: 1 2 3 4 5 6 7 8 9 10 11 12 13 14 15 16 17 18 19 20
771
FTUS43 KPAH 182320
TAFCGI
TAF
KCGI 182320Z 1900/1924 32017G27KT P6SM SCT015 OVC025
      TEMPO 1900/1902 4SM -RA BR OVC015
     FM190500 31010KT P6SM SKC
     FM191400 33012KT P6SM SKC
     FM192300 33003KT P6SM SKC=

USA.gov is the U.S. government's official web portal to all federal, state and local government web resources and services.